This is the latest recevied weather packets stored in our database for station/object K1BWE-1. If no packets are shown the sender has not sent any weather packets the latest 10 day(s).
| Time | Temp. | Humidity | Pressure | Rain* | Wind** | Luminosity | Snow |
|---|---|---|---|---|---|---|---|
| 1777914114 | 23.33° C | 30% | 1015.8 hPa | 0 mm | - | 396 W/m² | - |
| 1777913810 | 23.33° C | 29% | 1015.4 hPa | 0 mm | - | 264 W/m² | - |
| 1777913507 | 23.33° C | 29% | 1015.5 hPa | 0 mm | - | 507 W/m² | - |
| 1777913203 | 23.33° C | 30% | 1015.3 hPa | 0 mm | - | 325 W/m² | - |
| 1777912899 | 23.89° C | 31% | 1015.6 hPa | 0 mm | - | 310 W/m² | - |
| 1777912596 | 24.44° C | 29% | 1015.3 hPa | 0 mm | - | 477 W/m² | - |
| 1777912293 | 23.89° C | 29% | 1015.4 hPa | 0 mm | - | 803 W/m² | - |
| 1777911988 | 23.89° C | 30% | 1015.3 hPa | 0 mm | - | 750 W/m² | - |
| 1777911685 | 23.33° C | 32% | 1015.4 hPa | 0 mm | - | 517 W/m² | - |
| 1777911381 | 23.33° C | 29% | 1015.4 hPa | 0 mm | - | 377 W/m² | - |
| 1777911079 | 23.33° C | 30% | 1015.5 hPa | 0 mm | - | 519 W/m² | - |
| 1777910776 | 23.33° C | 31% | 1015.8 hPa | 0 mm | - | 556 W/m² | - |
| 1777910473 | 22.78° C | 32% | 1015.6 hPa | 0 mm | - | 414 W/m² | - |
| 1777910169 | 23.33° C | 31% | 1015.4 hPa | 0 mm | - | 409 W/m² | - |
| 1777909867 | 23.89° C | 30% | 1015.4 hPa | 0 mm | - | 504 W/m² | - |
| 1777909563 | 22.78° C | 31% | 1015.2 hPa | 0 mm | - | 464 W/m² | - |
| 1777909260 | 23.33° C | 30% | 1015.2 hPa | 0 mm | - | 445 W/m² | - |
| 1777908958 | 22.78° C | 32% | 1015.2 hPa | 0 mm | - | 375 W/m² | - |
| 1777908656 | 22.78° C | 32% | 1015.3 hPa | 0 mm | - | 219 W/m² | - |
| 1777908353 | 22.22° C | 33% | 1015 hPa | 0 mm | - | 200 W/m² | - |
| 1777908049 | 22.22° C | 31% | 1015.2 hPa | 0 mm | - | 274 W/m² | - |
| 1777907744 | 22.22° C | 32% | 1015.4 hPa | 0 mm | - | 270 W/m² | - |
| 1777907439 | 22.22° C | 35% | 1015.5 hPa | 0 mm | - | 184 W/m² | - |
| 1777907137 | 22.78° C | 32% | 1015.2 hPa | 0 mm | - | 205 W/m² | - |
| 1777906835 | 22.78° C | 32% | 1015.3 hPa | 0 mm | - | 324 W/m² | - |
* Rain latest hour (hover to see other rain measurements)
** Current wind speed in m/s (hover to see current wind gust speed)